createdAt,value
2018-03-20T00:00:39.806Z,0.63
2018-03-20T00:03:45.101Z,0.65
2018-03-20T00:06:50.474Z,0.66
2018-03-20T00:09:56.033Z,0.68
2018-03-20T00:13:01.598Z,0.69
2018-03-20T00:16:07.114Z,0.70
2018-03-20T00:19:12.667Z,0.70
2018-03-20T00:22:18.197Z,0.73
2018-03-20T00:25:23.517Z,0.75
2018-03-20T00:28:43.647Z,0.75
2018-03-20T00:35:40.664Z,0.79
2018-03-20T00:38:53.941Z,0.81
2018-03-20T00:42:05.782Z,0.82
2018-03-20T00:45:20.247Z,0.84
2018-03-20T00:48:32.540Z,0.84
2018-03-20T00:51:46.335Z,0.88
2018-03-20T00:54:56.661Z,0.89
2018-03-20T00:58:06.269Z,0.90
2018-03-20T01:01:15.085Z,0.90
2018-03-20T01:04:22.934Z,0.91
2018-03-20T01:07:29.925Z,0.92
2018-03-20T01:10:37.969Z,0.93
2018-03-20T01:13:43.902Z,0.94
2018-03-20T01:16:50.067Z,0.96
2018-03-20T01:19:55.557Z,0.96
2018-03-20T01:23:01.106Z,0.97
2018-03-20T01:26:06.609Z,0.98
2018-03-20T01:29:12.185Z,1.00
2018-03-20T01:32:17.707Z,1.00
2018-03-20T01:35:23.279Z,1.01
2018-03-20T01:38:28.799Z,1.04
2018-03-20T01:41:34.357Z,1.05
2018-03-20T01:44:40.369Z,1.06
2018-03-20T01:47:45.957Z,1.06
2018-03-20T01:50:51.508Z,1.08
2018-03-20T01:53:57.054Z,1.10
2018-03-20T01:57:02.373Z,1.11
2018-03-20T02:00:07.986Z,1.13
2018-03-20T02:03:13.568Z,1.14
2018-03-20T02:06:19.126Z,1.16
2018-03-20T02:09:24.637Z,1.17
2018-03-20T02:12:30.560Z,1.18
2018-03-20T02:15:36.083Z,1.18
2018-03-20T02:18:41.355Z,1.19
2018-03-20T02:21:46.914Z,1.20
2018-03-20T02:24:52.487Z,1.20
2018-03-20T02:27:58.007Z,1.22
2018-03-20T02:31:03.569Z,1.23
2018-03-20T02:34:09.107Z,1.23
2018-03-20T02:37:14.959Z,1.26
2018-03-20T02:40:20.543Z,1.26
2018-03-20T02:43:26.183Z,1.29
2018-03-20T02:46:35.643Z,1.30
2018-03-20T02:49:41.169Z,1.30
2018-03-20T02:52:46.726Z,1.31
2018-03-20T02:55:52.283Z,1.32
2018-03-20T02:58:57.823Z,1.35
2018-03-20T03:02:03.446Z,1.37
2018-03-20T03:05:08.992Z,1.37
2018-03-20T03:08:14.545Z,1.38
2018-03-20T03:11:20.156Z,1.39
2018-03-20T03:14:25.682Z,1.42
2018-03-20T03:17:31.240Z,1.43
2018-03-20T03:20:36.794Z,1.45
2018-03-20T03:23:42.305Z,1.47
2018-03-20T03:26:47.865Z,1.50
2018-03-20T03:29:53.374Z,1.55
2018-03-20T03:32:58.952Z,1.55
2018-03-20T03:36:04.517Z,1.60
2018-03-20T03:39:10.064Z,1.60
2018-03-20T03:42:15.642Z,1.64
2018-03-20T03:45:21.194Z,1.65
2018-03-20T03:48:29.331Z,1.67
2018-03-20T03:51:34.880Z,1.77
2018-03-20T03:54:40.046Z,1.83
2018-03-20T03:57:45.320Z,1.86
2018-03-20T04:00:50.894Z,1.80
2018-03-20T04:03:56.417Z,1.87
2018-03-20T04:07:01.974Z,1.86
2018-03-20T04:10:07.518Z,1.84
2018-03-20T04:13:13.149Z,1.87
2018-03-20T04:16:18.702Z,1.87
2018-03-20T04:19:24.070Z,1.89
2018-03-20T04:22:29.634Z,1.86
2018-03-20T04:25:35.146Z,1.90
2018-03-20T04:28:40.814Z,1.89
2018-03-20T04:31:46.379Z,1.91
2018-03-20T04:34:51.934Z,2.08
2018-03-20T04:37:57.502Z,2.02
2018-03-20T04:41:03.071Z,1.96
2018-03-20T04:44:08.602Z,1.96
2018-03-20T04:47:14.163Z,1.96
2018-03-20T04:50:19.674Z,1.98
2018-03-20T04:53:25.227Z,1.97
2018-03-20T04:56:30.728Z,1.97
2018-03-20T04:59:37.725Z,2.00
2018-03-20T05:02:43.292Z,2.05
2018-03-20T05:05:49.030Z,1.99
2018-03-20T05:08:55.097Z,1.97
2018-03-20T05:12:00.839Z,1.95
2018-03-20T05:15:06.399Z,1.96
2018-03-20T05:18:11.802Z,1.97
2018-03-20T05:21:23.968Z,1.97
2018-03-20T05:24:29.510Z,1.95
2018-03-20T05:27:34.874Z,1.90
2018-03-20T05:30:40.268Z,1.96
2018-03-20T05:33:45.671Z,1.98
2018-03-20T05:36:55.987Z,1.93
2018-03-20T05:40:01.366Z,1.94
2018-03-20T05:43:07.858Z,1.95
2018-03-20T05:46:23.924Z,1.89
2018-03-20T05:53:08.586Z,1.86
2018-03-20T05:56:14.163Z,1.91
2018-03-20T05:59:19.692Z,1.84
2018-03-20T06:02:25.298Z,1.87
2018-03-20T06:05:30.533Z,1.86
2018-03-20T06:08:36.141Z,1.87
2018-03-20T06:11:41.799Z,1.85
2018-03-20T06:14:47.318Z,1.84
2018-03-20T06:17:52.881Z,1.82
2018-03-20T06:20:58.381Z,1.84
2018-03-20T06:24:03.994Z,1.85
2018-03-20T06:27:09.494Z,1.82
2018-03-20T06:30:15.299Z,1.82
2018-03-20T06:33:20.817Z,1.87
2018-03-20T06:36:26.382Z,1.89
2018-03-20T06:39:31.894Z,1.86
2018-03-20T06:42:37.424Z,1.85
2018-03-20T06:45:42.940Z,1.86
2018-03-20T06:48:48.486Z,1.87
2018-03-20T06:51:53.989Z,1.92
2018-03-20T06:54:59.547Z,1.88
2018-03-20T06:58:05.128Z,1.85
2018-03-20T07:01:10.671Z,1.93
2018-03-20T07:04:16.206Z,1.89
2018-03-20T07:07:21.752Z,1.90
2018-03-20T07:10:30.549Z,1.97
2018-03-20T07:13:36.107Z,1.99
2018-03-20T07:16:41.679Z,2.01
2018-03-20T07:19:47.250Z,1.99
2018-03-20T07:22:52.762Z,1.99
2018-03-20T07:25:58.353Z,1.99
2018-03-20T07:29:03.895Z,2.00
2018-03-20T07:32:09.474Z,2.02
2018-03-20T07:35:15.064Z,2.00
2018-03-20T07:38:20.629Z,2.08
2018-03-20T07:41:26.202Z,2.06
2018-03-20T07:44:31.765Z,2.04
2018-03-20T07:47:37.389Z,2.03
2018-03-20T07:50:42.972Z,2.09
2018-03-20T07:53:48.482Z,2.09
2018-03-20T07:56:54.067Z,2.15
2018-03-20T07:59:59.577Z,2.19
2018-03-20T08:03:05.116Z,2.16
2018-03-20T08:06:10.387Z,2.18
2018-03-20T08:09:15.950Z,2.19
2018-03-20T08:12:21.556Z,2.21
2018-03-20T08:15:27.110Z,2.22
2018-03-20T08:18:32.630Z,2.22
2018-03-20T08:21:38.202Z,2.25
2018-03-20T08:24:43.716Z,2.27
2018-03-20T08:27:49.294Z,2.28
2018-03-20T08:30:54.850Z,2.31
2018-03-20T08:34:00.444Z,2.46
2018-03-20T08:37:06.018Z,2.48
2018-03-20T08:40:11.579Z,2.52
2018-03-20T08:43:17.098Z,2.48
2018-03-20T08:46:22.651Z,2.60
2018-03-20T08:49:28.353Z,2.57
2018-03-20T08:52:34.021Z,2.65
2018-03-20T08:55:39.842Z,2.68
2018-03-20T08:58:45.431Z,2.73
2018-03-20T09:01:51.011Z,2.73
2018-03-20T09:04:56.569Z,2.78
2018-03-20T09:08:02.090Z,2.78
2018-03-20T09:11:07.644Z,2.86
2018-03-20T09:14:13.173Z,2.94
2018-03-20T09:17:18.729Z,3.02
2018-03-20T09:20:24.257Z,3.02
2018-03-20T09:23:29.821Z,3.12
2018-03-20T09:26:35.381Z,3.11
2018-03-20T09:29:40.949Z,3.09
2018-03-20T09:32:46.469Z,3.09
2018-03-20T09:35:52.026Z,3.14
2018-03-20T09:39:01.000Z,3.17
2018-03-20T09:42:06.344Z,3.20
2018-03-20T09:45:11.850Z,3.20
2018-03-20T09:48:17.446Z,3.22
2018-03-20T09:51:22.950Z,3.27
2018-03-20T09:54:28.574Z,3.37
2018-03-20T09:57:34.127Z,3.41
2018-03-20T10:00:39.700Z,3.40
2018-03-20T10:03:45.233Z,3.43
2018-03-20T10:06:50.792Z,3.45
2018-03-20T10:09:56.325Z,3.42
2018-03-20T10:13:01.881Z,3.51
2018-03-20T10:16:07.390Z,3.52
2018-03-20T10:19:13.048Z,3.56
2018-03-20T10:22:18.555Z,3.52
2018-03-20T10:25:24.138Z,3.54
2018-03-20T10:28:29.653Z,3.50
2018-03-20T10:31:35.209Z,3.50
2018-03-20T10:34:40.777Z,3.57
2018-03-20T10:37:46.347Z,3.54
2018-03-20T10:40:51.860Z,3.59
2018-03-20T10:43:57.538Z,3.57
2018-03-20T10:47:03.073Z,3.57
2018-03-20T10:50:08.709Z,3.60
2018-03-20T10:53:14.259Z,3.60
2018-03-20T10:56:19.826Z,3.60
2018-03-20T10:59:25.384Z,3.59
2018-03-20T11:02:31.949Z,3.61
2018-03-20T11:05:37.471Z,3.61
2018-03-20T11:08:43.023Z,3.72
2018-03-20T11:11:48.522Z,3.76
2018-03-20T11:14:53.882Z,3.68
2018-03-20T11:17:59.442Z,3.75
2018-03-20T11:21:04.958Z,3.64
2018-03-20T11:24:10.534Z,3.68
2018-03-20T11:27:16.100Z,3.64
2018-03-20T11:30:21.603Z,3.73
2018-03-20T11:33:27.161Z,3.74
2018-03-20T11:36:34.402Z,3.82
2018-03-20T11:39:39.965Z,3.69
2018-03-20T11:42:45.466Z,3.65
2018-03-20T11:45:51.030Z,3.75
2018-03-20T11:48:56.590Z,3.69
2018-03-20T11:52:02.113Z,3.68
2018-03-20T11:55:07.675Z,3.75
2018-03-20T11:58:13.256Z,3.74
2018-03-20T12:01:18.815Z,3.82
2018-03-20T12:04:24.141Z,3.76
2018-03-20T12:07:29.669Z,3.73
2018-03-20T12:10:35.703Z,3.78
2018-03-20T12:13:55.781Z,3.80
2018-03-20T12:17:01.311Z,3.85
2018-03-20T12:20:06.889Z,3.82
2018-03-20T12:23:12.432Z,3.78
2018-03-20T12:26:17.914Z,3.80
2018-03-20T12:29:23.459Z,3.86
2018-03-20T12:32:28.972Z,3.86
2018-03-20T12:35:34.566Z,3.94
2018-03-20T12:38:40.993Z,4.04
2018-03-20T12:41:46.618Z,4.10
2018-03-20T12:44:52.160Z,4.06
2018-03-20T12:47:57.715Z,4.10
2018-03-20T12:51:03.204Z,4.14
2018-03-20T12:54:08.773Z,4.07
2018-03-20T12:57:14.366Z,4.13
2018-03-20T13:00:19.904Z,4.12
2018-03-20T13:03:25.405Z,4.14
2018-03-20T13:06:30.697Z,4.16
2018-03-20T13:09:36.187Z,4.25
2018-03-20T13:12:41.753Z,4.25
2018-03-20T13:15:47.254Z,4.33
2018-03-20T13:18:52.781Z,4.35
2018-03-20T13:21:58.552Z,4.37
2018-03-20T13:25:04.089Z,4.36
2018-03-20T13:28:09.621Z,4.40
2018-03-20T13:31:22.485Z,4.48
2018-03-20T13:34:28.815Z,4.47
2018-03-20T13:37:34.368Z,4.55
2018-03-20T13:40:40.292Z,4.67
2018-03-20T13:43:45.867Z,4.59
2018-03-20T13:46:51.725Z,4.60
2018-03-20T13:49:57.326Z,4.64
2018-03-20T13:53:02.866Z,4.64
2018-03-20T13:56:08.602Z,4.66
2018-03-20T13:59:14.107Z,4.70
2018-03-20T14:02:19.658Z,4.71
2018-03-20T14:05:25.220Z,4.80
2018-03-20T14:08:30.764Z,4.80
2018-03-20T14:11:36.258Z,4.82
2018-03-20T14:14:41.812Z,4.87
2018-03-20T14:17:50.486Z,4.89
2018-03-20T14:20:56.029Z,4.90
2018-03-20T14:24:01.531Z,4.94
2018-03-20T14:27:07.098Z,4.96
2018-03-20T14:30:12.596Z,5.05
2018-03-20T14:33:18.164Z,4.99
2018-03-20T14:36:23.670Z,4.96
2018-03-20T14:39:28.956Z,4.97
2018-03-20T14:42:34.449Z,5.01
2018-03-20T14:45:39.977Z,5.05
2018-03-20T14:48:45.612Z,5.08
2018-03-20T14:51:51.161Z,5.06
2018-03-20T14:54:56.714Z,5.14
2018-03-20T14:58:02.202Z,5.12
2018-03-20T15:01:07.601Z,5.17
2018-03-20T15:04:13.161Z,5.17
2018-03-20T15:07:18.726Z,5.12
2018-03-20T15:10:24.618Z,5.14
2018-03-20T15:13:30.196Z,5.14
2018-03-20T15:16:35.692Z,5.13
2018-03-20T15:19:41.221Z,5.13
2018-03-20T15:22:46.777Z,5.19
2018-03-20T15:25:52.309Z,5.18
2018-03-20T15:28:59.101Z,5.16
2018-03-20T15:32:04.649Z,5.16
2018-03-20T15:35:10.274Z,5.17
2018-03-20T15:38:15.769Z,5.15
2018-03-20T15:41:23.401Z,5.11
2018-03-20T15:44:28.890Z,5.14
2018-03-20T15:47:36.918Z,5.13
2018-03-20T15:50:43.661Z,5.10
2018-03-20T15:53:49.149Z,5.06
2018-03-20T15:56:54.689Z,5.04
2018-03-20T16:00:00.315Z,4.96
2018-03-20T16:03:05.880Z,4.95
2018-03-20T16:06:11.421Z,4.86
2018-03-20T16:09:20.539Z,4.79
2018-03-20T16:12:37.825Z,4.76
2018-03-20T16:15:49.045Z,4.74
2018-03-20T16:19:02.314Z,4.72
2018-03-20T16:22:18.294Z,4.72
2018-03-20T16:25:42.249Z,4.64
2018-03-20T16:28:54.581Z,4.57
2018-03-20T16:32:00.078Z,4.49
2018-03-20T16:35:07.828Z,4.45
2018-03-20T16:38:14.739Z,4.38
2018-03-20T16:41:23.212Z,4.34
2018-03-20T16:44:29.224Z,4.31
2018-03-20T16:47:34.770Z,4.28
2018-03-20T16:50:40.253Z,4.24
2018-03-20T16:53:47.136Z,4.21
2018-03-20T16:56:58.184Z,4.19
2018-03-20T17:00:05.814Z,4.13
2018-03-20T17:03:15.121Z,4.08
2018-03-20T17:06:23.793Z,4.02
2018-03-20T17:09:34.462Z,3.95
2018-03-20T17:12:44.722Z,3.96
2018-03-20T17:15:53.571Z,3.86
2018-03-20T17:19:07.637Z,3.78
2018-03-20T17:22:18.543Z,3.74
2018-03-20T17:25:24.083Z,3.65
2018-03-20T17:28:34.426Z,3.61
2018-03-20T17:31:42.310Z,3.58
2018-03-20T17:34:51.244Z,3.54
2018-03-20T17:37:57.326Z,3.45
2018-03-20T17:41:03.605Z,3.42
2018-03-20T17:44:09.514Z,3.35
2018-03-20T17:47:15.794Z,3.26
2018-03-20T17:50:23.263Z,3.25
2018-03-20T17:53:29.851Z,3.20
2018-03-20T17:56:35.612Z,3.16
2018-03-20T17:59:43.650Z,3.13
2018-03-20T18:02:49.732Z,3.05
2018-03-20T18:05:57.598Z,3.03
2018-03-20T18:09:03.608Z,2.96
2018-03-20T18:12:09.171Z,2.93
2018-03-20T18:15:14.704Z,2.87
2018-03-20T18:18:20.205Z,2.79
2018-03-20T18:21:26.079Z,2.72
2018-03-20T18:24:32.559Z,2.66
2018-03-20T18:27:38.816Z,2.55
2018-03-20T18:30:44.371Z,2.47
2018-03-20T18:33:49.869Z,2.38
2018-03-20T18:36:55.439Z,2.25
2018-03-20T18:40:00.943Z,2.17
2018-03-20T18:43:06.486Z,2.09
2018-03-20T18:46:11.986Z,1.98
2018-03-20T18:49:17.517Z,1.89
2018-03-20T18:52:23.121Z,1.81
2018-03-20T18:55:28.759Z,1.73
2018-03-20T18:58:35.213Z,1.64
2018-03-20T19:01:44.360Z,1.53
2018-03-20T19:04:54.142Z,1.38
2018-03-20T19:08:10.344Z,1.26
2018-03-20T19:11:29.566Z,1.20
2018-03-20T19:14:48.593Z,1.18
2018-03-20T19:18:07.601Z,1.08
2018-03-20T19:21:23.267Z,1.02
2018-03-20T19:24:50.108Z,0.93
2018-03-20T19:28:11.494Z,0.81
2018-03-20T19:31:30.921Z,0.79
2018-03-20T19:34:49.210Z,0.78
2018-03-20T19:38:07.101Z,0.71
2018-03-20T19:41:32.896Z,0.66
2018-03-20T19:44:58.584Z,0.67
2018-03-20T19:48:13.574Z,0.55
2018-03-20T19:51:29.550Z,0.51
2018-03-20T19:54:45.947Z,0.40
2018-03-20T19:58:05.603Z,0.43
2018-03-20T20:01:31.907Z,0.38
2018-03-20T20:04:51.781Z,0.29
2018-03-20T20:08:08.357Z,0.29
2018-03-20T20:11:29.474Z,0.14
2018-03-20T20:14:56.998Z,0.02
2018-03-20T20:18:16.730Z,0.07
2018-03-20T20:21:33.257Z,-0.02
2018-03-20T20:25:06.303Z,-0.01
2018-03-20T20:28:30.482Z,-0.04
2018-03-20T20:31:47.812Z,-0.11
2018-03-20T20:35:23.122Z,-0.21
2018-03-20T20:38:52.332Z,-0.18
2018-03-20T20:42:07.365Z,-0.26
2018-03-20T20:48:52.174Z,-0.40
2018-03-20T20:52:12.303Z,-0.44
2018-03-20T20:55:37.667Z,-0.49
2018-03-20T20:59:00.043Z,-0.56
2018-03-20T21:02:26.727Z,-0.58
2018-03-20T21:06:02.277Z,-0.65
2018-03-20T21:09:33.991Z,-0.74
2018-03-20T21:13:03.611Z,-0.73
2018-03-20T21:16:25.372Z,-0.75
2018-03-20T21:19:45.420Z,-0.79
2018-03-20T21:23:05.125Z,-0.90
2018-03-20T21:26:34.782Z,-0.91
2018-03-20T21:30:08.679Z,-0.93
2018-03-20T21:33:26.123Z,-0.99
2018-03-20T21:36:40.264Z,-1.02
2018-03-20T21:39:48.481Z,-1.08
2018-03-20T21:42:54.020Z,-1.12
2018-03-20T21:45:59.686Z,-1.18
2018-03-20T21:49:05.024Z,-1.19
2018-03-20T21:52:10.281Z,-1.21
2018-03-20T21:55:15.849Z,-1.25
2018-03-20T21:58:21.139Z,-1.28
2018-03-20T22:01:26.404Z,-1.33
2018-03-20T22:04:31.689Z,-1.41
2018-03-20T22:07:37.085Z,-1.39
2018-03-20T22:10:42.575Z,-1.38
2018-03-20T22:13:47.849Z,-1.44
2018-03-20T22:16:53.078Z,-1.43
2018-03-20T22:19:58.354Z,-1.44
2018-03-20T22:23:03.590Z,-1.47
2018-03-20T22:26:08.852Z,-1.52
2018-03-20T22:29:14.112Z,-1.50
2018-03-20T22:32:19.664Z,-1.51
2018-03-20T22:35:25.303Z,-1.57
2018-03-20T22:38:30.809Z,-1.64
2018-03-20T22:41:36.084Z,-1.63
2018-03-20T22:44:41.572Z,-1.67
2018-03-20T22:47:46.845Z,-1.66
2018-03-20T22:50:52.068Z,-1.69
2018-03-20T22:53:57.328Z,-1.76
2018-03-20T22:57:02.559Z,-1.72
2018-03-20T23:00:07.316Z,-1.79
2018-03-20T23:03:12.391Z,-1.79
2018-03-20T23:06:17.688Z,-1.83
2018-03-20T23:09:22.954Z,-1.80
2018-03-20T23:12:28.220Z,-1.85
2018-03-20T23:15:33.463Z,-1.88
2018-03-20T23:18:38.738Z,-1.93
2018-03-20T23:21:44.236Z,-1.92
2018-03-20T23:24:49.799Z,-1.95
2018-03-20T23:27:55.024Z,-1.96
2018-03-20T23:31:00.614Z,-1.97
2018-03-20T23:34:06.027Z,-2.03
2018-03-20T23:37:11.289Z,-2.02
2018-03-20T23:40:16.794Z,-2.07
2018-03-20T23:43:22.046Z,-2.10
2018-03-20T23:46:27.317Z,-2.08
2018-03-20T23:49:32.529Z,-2.12
2018-03-20T23:52:37.870Z,-2.10
2018-03-20T23:55:42.788Z,-2.10
2018-03-20T23:58:48.050Z,-2.26
